Time;durP1;ratioP1;P1;durP2;ratioP2;P2;SDS_P1;SDS_P2;PMS_P1;PMS_P2;Temp;Humidity;BMP_temperature;BMP_pressure;BME280_temperature;BME280_humidity;BME280_pressure;Samples;Min_cycle;Max_cycle;Signal;HPM_P1;HPM_P2
2023/06/16 00:00:12;;;;;;;0.60;0.20;;;20.20;99.90;;;;;;5032799;28;20068;-83
2023/06/16 00:02:41;;;;;;;0.10;0.10;;;20.30;99.90;;;;;;5032389;28;20026;-83
2023/06/16 00:05:10;;;;;;;0.90;0.52;;;20.30;99.90;;;;;;5035671;28;20362;-83
2023/06/16 00:07:36;;;;;;;0.05;0.05;;;20.10;99.90;;;;;;5035581;28;20033;-83
2023/06/16 00:10:05;;;;;;;0.10;0.10;;;20.20;99.90;;;;;;5035475;28;20018;-83
2023/06/16 00:12:30;;;;;;;0.35;0.30;;;20.10;99.90;;;;;;5035717;28;20033;-83
2023/06/16 00:14:56;;;;;;;0.10;0.10;;;20.10;99.90;;;;;;5036293;28;20025;-83
2023/06/16 00:17:23;;;;;;;0.10;0.10;;;20.10;99.90;;;;;;5035498;28;20386;-83
2023/06/16 00:19:49;;;;;;;0.10;0.10;;;20.10;99.90;;;;;;5035361;28;20045;-83
2023/06/16 00:22:17;;;;;;;0.35;0.30;;;20.00;99.90;;;;;;5035923;28;20115;-83
2023/06/16 00:24:44;;;;;;;0.05;0.05;;;20.00;99.90;;;;;;5034875;28;20029;-83
2023/06/16 00:27:10;;;;;;;0.22;0.22;;;20.10;99.90;;;;;;5035555;28;20084;-83
2023/06/16 00:29:38;;;;;;;0.10;0.10;;;20.00;99.90;;;;;;5035090;28;20029;-83
2023/06/16 00:32:04;;;;;;;0.63;0.30;;;20.00;99.90;;;;;;5034952;28;20108;-83
2023/06/16 00:34:29;;;;;;;0.35;0.35;;;20.00;99.90;;;;;;5035551;28;20529;-83
2023/06/16 00:36:55;;;;;;;0.10;0.10;;;19.90;99.90;;;;;;5035725;28;20026;-83
2023/06/16 00:39:21;;;;;;;0.10;0.10;;;19.90;99.90;;;;;;5034955;28;20108;-83
2023/06/16 00:41:47;;;;;;;0.05;0.05;;;19.90;99.90;;;;;;5034678;28;20572;-83
2023/06/16 00:44:12;;;;;;;0.70;0.55;;;19.80;99.90;;;;;;5034871;28;20076;-83
2023/06/16 00:46:38;;;;;;;0.13;0.13;;;19.80;99.90;;;;;;5035260;28;20079;-83
2023/06/16 00:49:05;;;;;;;0.03;0.03;;;19.70;99.90;;;;;;5035019;28;20029;-83
2023/06/16 00:51:30;;;;;;;0.22;0.22;;;19.60;99.90;;;;;;5034681;28;20029;-83
2023/06/16 00:53:57;;;;;;;0.10;0.10;;;19.70;99.90;;;;;;5034628;28;20375;-83
2023/06/16 00:56:23;;;;;;;0.15;0.15;;;19.60;99.90;;;;;;5034813;28;20033;-82
2023/06/16 00:58:51;;;;;;;0.10;0.10;;;19.70;99.90;;;;;;5034691;28;20451;-82
2023/06/16 01:01:17;;;;;;;0.10;0.10;;;19.70;99.90;;;;;;5035138;28;20049;-83
2023/06/16 01:03:44;;;;;;;0.00;0.00;;;19.70;99.90;;;;;;5034506;28;20060;-83
2023/06/16 01:06:36;;;;;;;0.20;0.20;;;19.40;99.90;;;;;;5034809;28;20025;-83
2023/06/16 01:09:28;;;;;;;0.05;0.05;;;19.50;99.90;;;;;;5035400;28;20064;-83
2023/06/16 01:12:17;;;;;;;0.13;0.13;;;19.40;99.90;;;;;;5034326;28;20033;-83
2023/06/16 01:14:56;;;;;;;2.63;0.40;;;19.30;99.90;;;;;;5034087;28;20060;-82
2023/06/16 01:17:23;;;;;;;0.17;0.17;;;19.20;99.90;;;;;;5034181;28;20025;-83
2023/06/16 01:19:57;;;;;;;0.10;0.10;;;19.20;99.90;;;;;;5034741;28;20490;-82
2023/06/16 01:22:42;;;;;;;0.22;0.22;;;19.50;99.90;;;;;;5034017;28;20030;-83
2023/06/16 01:25:13;;;;;;;0.50;0.30;;;19.40;99.90;;;;;;5034014;28;20030;-82
2023/06/16 01:27:47;;;;;;;0.10;0.10;;;19.40;99.90;;;;;;5034267;28;20108;-83
2023/06/16 01:30:15;;;;;;;0.10;0.10;;;19.30;99.90;;;;;;5033777;28;20436;-83
2023/06/16 01:32:43;;;;;;;0.10;0.10;;;19.20;99.90;;;;;;5033938;28;20033;-82
2023/06/16 01:35:11;;;;;;;0.75;0.20;;;19.20;99.90;;;;;;5034489;28;20057;-82
2023/06/16 01:37:38;;;;;;;0.10;0.10;;;19.10;99.90;;;;;;5033502;28;20108;-83
2023/06/16 01:40:08;;;;;;;0.10;0.10;;;19.00;99.90;;;;;;5033766;28;20025;-83
2023/06/16 01:42:35;;;;;;;0.10;0.10;;;19.10;99.90;;;;;;5033992;28;20059;-83
2023/06/16 01:45:02;;;;;;;0.00;0.00;;;19.20;99.90;;;;;;5033936;28;20036;-83
2023/06/16 01:47:29;;;;;;;0.20;0.20;;;19.20;99.90;;;;;;5033684;28;20017;-82
2023/06/16 01:49:55;;;;;;;0.38;0.30;;;19.10;99.90;;;;;;5033323;28;20116;-83
2023/06/16 01:52:21;;;;;;;0.45;0.30;;;19.40;99.90;;;;;;5033501;28;20034;-83
2023/06/16 01:54:46;;;;;;;0.10;0.10;;;19.30;99.90;;;;;;5034366;28;20097;-82
2023/06/16 01:57:12;;;;;;;0.20;0.20;;;19.30;99.90;;;;;;5033958;28;20033;-82
2023/06/16 01:59:38;;;;;;;0.30;0.30;;;19.10;99.90;;;;;;5034043;28;20509;-82
2023/06/16 02:02:10;;;;;;;0.25;0.25;;;19.10;99.90;;;;;;5033554;28;20109;-82
2023/06/16 02:04:42;;;;;;;0.63;0.20;;;19.00;99.90;;;;;;5033301;28;20026;-83
2023/06/16 02:07:12;;;;;;;0.68;0.45;;;18.70;99.90;;;;;;5033333;28;20021;-82
2023/06/16 02:09:39;;;;;;;0.17;0.17;;;18.70;99.90;;;;;;5033411;28;20017;-82
2023/06/16 02:12:09;;;;;;;0.00;0.00;;;18.80;99.90;;;;;;5033012;28;20032;-82
2023/06/16 02:14:35;;;;;;;0.65;0.30;;;18.80;99.90;;;;;;5033409;28;20021;-83
2023/06/16 02:17:19;;;;;;;0.10;0.10;;;18.90;99.90;;;;;;5033575;28;20025;-83
2023/06/16 02:19:44;;;;;;;0.28;0.28;;;19.00;99.90;;;;;;5033396;28;20029;-82
2023/06/16 02:22:10;;;;;;;0.10;0.10;;;19.00;99.90;;;;;;5033461;28;20375;-83
2023/06/16 02:24:36;;;;;;;0.17;0.17;;;18.60;99.90;;;;;;5032772;28;20029;-82
2023/06/16 02:27:03;;;;;;;0.13;0.13;;;18.50;99.90;;;;;;5032597;28;20025;-83
2023/06/16 02:29:29;;;;;;;0.20;0.20;;;18.60;99.90;;;;;;5033718;28;20030;-83
2023/06/16 02:31:55;;;;;;;0.10;0.10;;;18.50;99.90;;;;;;5032789;28;20091;-83
2023/06/16 02:34:21;;;;;;;0.25;0.17;;;18.40;99.90;;;;;;5032443;28;20473;-83
2023/06/16 02:36:46;;;;;;;0.10;0.10;;;18.60;99.90;;;;;;5015391;28;20083;-83
2023/06/16 02:39:13;;;;;;;0.10;0.10;;;18.50;99.90;;;;;;5032850;28;20108;-82
2023/06/16 02:41:39;;;;;;;0.10;0.10;;;18.50;99.90;;;;;;5032461;28;20056;-82
2023/06/16 02:44:04;;;;;;;0.00;0.00;;;18.60;99.90;;;;;;5032497;28;20108;-83
2023/06/16 02:46:30;;;;;;;0.20;0.20;;;18.60;99.90;;;;;;5032833;28;20499;-83
2023/06/16 02:48:56;;;;;;;0.73;0.30;;;18.70;99.90;;;;;;5032356;28;20028;-82
2023/06/16 02:51:21;;;;;;;0.10;0.10;;;18.60;99.90;;;;;;5033410;28;20493;-83
2023/06/16 02:53:47;;;;;;;0.22;0.15;;;18.80;99.90;;;;;;5032777;28;20026;-83
2023/06/16 02:56:14;;;;;;;0.00;0.00;;;18.70;99.90;;;;;;5032586;28;20113;-83
2023/06/16 02:58:39;;;;;;;0.20;0.20;;;18.40;99.90;;;;;;5032760;28;20044;-83
2023/06/16 03:01:05;;;;;;;1.65;0.40;;;18.50;99.90;;;;;;5032503;28;20026;-83
2023/06/16 03:03:34;;;;;;;0.08;0.08;;;18.50;99.90;;;;;;5031909;28;20033;-83
2023/06/16 03:06:00;;;;;;;0.10;0.10;;;18.50;99.90;;;;;;5032258;28;20021;-83
2023/06/16 03:08:26;;;;;;;0.10;0.10;;;18.40;99.90;;;;;;5014708;28;20108;-83
2023/06/16 03:10:52;;;;;;;0.10;0.10;;;18.50;99.90;;;;;;5032061;28;20438;-83
2023/06/16 03:13:18;;;;;;;0.10;0.10;;;18.40;99.90;;;;;;5032450;28;20044;-83
2023/06/16 03:15:44;;;;;;;0.25;0.25;;;18.30;99.90;;;;;;5032679;28;20013;-83
2023/06/16 03:18:10;;;;;;;0.05;0.05;;;18.20;99.90;;;;;;5031351;28;20417;-83
2023/06/16 03:20:36;;;;;;;0.20;0.20;;;18.20;99.90;;;;;;5032416;28;20382;-83
2023/06/16 03:23:02;;;;;;;0.10;0.10;;;18.10;99.90;;;;;;5032625;28;20029;-82
2023/06/16 03:25:30;;;;;;;0.10;0.10;;;18.00;99.90;;;;;;5031937;28;20473;-83
2023/06/16 03:27:56;;;;;;;0.10;0.10;;;18.30;99.90;;;;;;5032054;28;20022;-83
2023/06/16 03:30:22;;;;;;;0.10;0.10;;;18.30;99.90;;;;;;5031940;28;20026;-83
2023/06/16 03:32:48;;;;;;;0.00;0.00;;;18.20;99.90;;;;;;5031811;28;20038;-83
2023/06/16 03:35:13;;;;;;;0.10;0.10;;;18.20;99.90;;;;;;5032326;28;20390;-82
2023/06/16 03:37:39;;;;;;;0.08;0.08;;;18.30;99.90;;;;;;5034433;28;20111;-82
2023/06/16 03:40:06;;;;;;;0.08;0.08;;;18.30;99.90;;;;;;5035951;28;20056;-82
2023/06/16 03:42:35;;;;;;;0.00;0.00;;;18.30;99.90;;;;;;5035921;28;20041;-83
2023/06/16 03:45:01;;;;;;;0.10;0.10;;;18.40;99.90;;;;;;5036038;28;20024;-83
2023/06/16 03:47:27;;;;;;;0.00;0.00;;;18.30;99.90;;;;;;5036287;28;20033;-83
2023/06/16 03:49:54;;;;;;;0.00;0.00;;;18.30;99.90;;;;;;5035331;28;20029;-83
2023/06/16 03:52:20;;;;;;;0.10;0.10;;;18.40;99.90;;;;;;5036179;28;20034;-83
2023/06/16 03:54:46;;;;;;;0.00;0.00;;;18.40;99.90;;;;;;5036039;28;20075;-83
2023/06/16 03:57:12;;;;;;;0.20;0.20;;;18.10;99.90;;;;;;5035784;28;20025;-83
2023/06/16 03:59:38;;;;;;;0.08;0.08;;;18.10;99.90;;;;;;5035923;28;20112;-83
2023/06/16 04:02:07;;;;;;;0.10;0.10;;;18.30;99.90;;;;;;5035368;28;20097;-83
2023/06/16 04:04:33;;;;;;;0.20;0.20;;;18.30;99.90;;;;;;5035412;28;20030;-83
2023/06/16 04:07:00;;;;;;;0.35;0.35;;;18.20;99.90;;;;;;5036271;28;20036;-83
2023/06/16 04:09:26;;;;;;;0.10;0.10;;;18.20;99.90;;;;;;5035704;28;20017;-83
2023/06/16 04:11:52;;;;;;;0.43;0.20;;;18.00;99.90;;;;;;5035615;28;20038;-83
2023/06/16 04:14:18;;;;;;;0.15;0.15;;;18.00;99.90;;;;;;5035764;28;20028;-83
2023/06/16 04:16:43;;;;;;;0.20;0.20;;;17.90;99.90;;;;;;5035030;28;20037;-82
2023/06/16 04:19:12;;;;;;;0.00;0.00;;;17.90;99.90;;;;;;5035466;28;20477;-83
2023/06/16 04:21:37;;;;;;;0.38;0.38;;;17.80;99.90;;;;;;5035389;28;20036;-83
2023/06/16 04:24:04;;;;;;;0.55;0.38;;;17.70;99.90;;;;;;5035243;28;20021;-83
2023/06/16 04:26:30;;;;;;;0.10;0.10;;;17.90;99.90;;;;;;5035242;28;20036;-83
2023/06/16 04:28:56;;;;;;;0.25;0.25;;;17.90;99.90;;;;;;5035608;28;20022;-83
2023/06/16 04:31:29;;;;;;;0.20;0.20;;;17.90;99.90;;;;;;5034556;28;20026;-83
2023/06/16 04:33:57;;;;;;;0.30;0.30;;;17.80;99.90;;;;;;5034962;28;20034;-83
2023/06/16 04:36:25;;;;;;;0.28;0.28;;;18.10;99.90;;;;;;5035084;28;20032;-83
2023/06/16 04:38:53;;;;;;;0.22;0.22;;;17.80;99.90;;;;;;5035047;28;20037;-83
2023/06/16 04:41:19;;;;;;;0.20;0.20;;;17.90;99.90;;;;;;5035109;28;20045;-84
2023/06/16 04:43:44;;;;;;;0.10;0.10;;;17.80;99.90;;;;;;5034542;28;20105;-83
2023/06/16 04:46:10;;;;;;;0.10;0.10;;;17.80;99.90;;;;;;5034744;28;20493;-83
2023/06/16 04:48:36;;;;;;;0.10;0.10;;;18.00;99.90;;;;;;5034216;28;20022;-83
2023/06/16 04:51:01;;;;;;;0.20;0.20;;;17.80;99.90;;;;;;5035625;28;20535;-83
2023/06/16 04:53:28;;;;;;;0.20;0.20;;;18.00;99.90;;;;;;5034643;28;20025;-83
2023/06/16 04:55:54;;;;;;;0.00;0.00;;;18.20;99.90;;;;;;5034792;28;20025;-83
2023/06/16 04:58:20;;;;;;;0.08;0.08;;;18.10;99.90;;;;;;5034409;28;20032;-83
2023/06/16 05:00:46;;;;;;;0.20;0.20;;;18.10;99.90;;;;;;5034428;28;20021;-83
2023/06/16 05:03:12;;;;;;;0.13;0.13;;;18.10;99.90;;;;;;5035386;28;20026;-83
2023/06/16 05:05:37;;;;;;;0.00;0.00;;;18.10;99.90;;;;;;5034998;28;20037;-83
2023/06/16 05:08:03;;;;;;;0.05;0.05;;;18.10;99.90;;;;;;5034489;28;20544;-83
2023/06/16 05:10:29;;;;;;;0.10;0.10;;;18.00;99.90;;;;;;5034443;28;20030;-82
2023/06/16 05:12:57;;;;;;;2.28;1.13;;;18.20;99.90;;;;;;5033949;28;20228;-83
2023/06/16 05:15:23;;;;;;;0.10;0.10;;;18.30;99.90;;;;;;5034230;28;20025;-83
2023/06/16 05:17:49;;;;;;;1.35;0.52;;;18.30;99.90;;;;;;5034725;28;20420;-83
2023/06/16 05:20:15;;;;;;;0.20;0.20;;;18.40;99.90;;;;;;5034267;28;20018;-83
2023/06/16 05:22:40;;;;;;;0.10;0.10;;;18.40;99.90;;;;;;5034052;28;20030;-83
2023/06/16 05:25:06;;;;;;;0.52;0.40;;;18.50;99.90;;;;;;5034179;28;20428;-84
2023/06/16 05:27:32;;;;;;;0.17;0.17;;;18.40;99.90;;;;;;5033912;28;20612;-84
2023/06/16 05:29:58;;;;;;;0.10;0.10;;;18.30;99.90;;;;;;5034331;28;20076;-83
2023/06/16 05:32:24;;;;;;;0.55;0.47;;;18.70;99.90;;;;;;5034080;28;20087;-83
2023/06/16 05:34:51;;;;;;;0.40;0.20;;;18.30;99.90;;;;;;5033999;28;20036;-83
2023/06/16 05:37:18;;;;;;;0.28;0.28;;;18.50;99.90;;;;;;5033896;28;20061;-83
2023/06/16 05:39:45;;;;;;;0.52;0.52;;;18.70;99.90;;;;;;5034086;28;20386;-83
2023/06/16 05:42:13;;;;;;;0.35;0.35;;;18.90;99.90;;;;;;5033072;28;20451;-83
2023/06/16 05:44:44;;;;;;;0.40;0.40;;;18.70;99.90;;;;;;5022669;28;20092;-83
2023/06/16 05:47:11;;;;;;;0.10;0.10;;;18.80;99.90;;;;;;5013981;28;20437;-83
2023/06/16 05:49:36;;;;;;;0.20;0.20;;;18.70;99.90;;;;;;5016045;28;20017;-86
2023/06/16 05:52:04;;;;;;;0.40;0.40;;;18.70;99.90;;;;;;5023651;28;20121;-83
2023/06/16 05:54:30;;;;;;;0.15;0.15;;;18.90;99.90;;;;;;5013929;28;20096;-83
2023/06/16 05:56:59;;;;;;;0.30;0.25;;;19.00;99.90;;;;;;5013845;28;20026;-83
2023/06/16 05:59:26;;;;;;;0.10;0.10;;;19.10;99.90;;;;;;5013774;28;20057;-83
2023/06/16 06:01:51;;;;;;;0.20;0.20;;;19.20;99.90;;;;;;5012973;28;20387;-83
2023/06/16 06:04:25;;;;;;;0.13;0.13;;;19.20;99.90;;;;;;5013765;28;20034;-83
2023/06/16 06:06:51;;;;;;;0.30;0.28;;;19.40;99.90;;;;;;5013735;28;20097;-83
2023/06/16 06:09:17;;;;;;;0.22;0.22;;;19.50;99.90;;;;;;5013908;28;20104;-83
2023/06/16 06:11:42;;;;;;;0.20;0.20;;;19.70;99.90;;;;;;5013326;28;20045;-83
2023/06/16 06:14:08;;;;;;;0.10;0.10;;;19.70;99.90;;;;;;5013238;28;20080;-82
2023/06/16 06:16:34;;;;;;;0.00;0.00;;;19.80;99.90;;;;;;5013661;28;20022;-83
2023/06/16 06:18:59;;;;;;;0.10;0.10;;;19.90;99.90;;;;;;5013362;28;20065;-83
2023/06/16 06:21:25;;;;;;;0.25;0.25;;;19.90;99.90;;;;;;5013291;28;20029;-83
2023/06/16 06:23:51;;;;;;;0.17;0.17;;;20.00;99.90;;;;;;5013186;28;20037;-83
2023/06/16 06:26:17;;;;;;;1.42;0.63;;;20.00;99.90;;;;;;5012936;28;20028;-83
2023/06/16 06:28:43;;;;;;;1.17;0.38;;;20.10;99.90;;;;;;5013444;28;20117;-83
2023/06/16 06:31:08;;;;;;;0.65;0.47;;;20.20;99.90;;;;;;5026111;28;20105;-83
2023/06/16 06:33:34;;;;;;;0.10;0.10;;;20.20;99.90;;;;;;5032610;28;20038;-83
2023/06/16 06:36:00;;;;;;;0.70;0.20;;;20.40;99.90;;;;;;5033502;28;20013;-83
2023/06/16 06:38:25;;;;;;;1.95;0.40;;;20.50;99.90;;;;;;5032583;28;20029;-83
2023/06/16 06:40:51;;;;;;;0.20;0.20;;;20.70;99.90;;;;;;5032229;28;20417;-82
2023/06/16 06:43:17;;;;;;;0.10;0.10;;;20.70;99.90;;;;;;5017396;28;20484;-83
2023/06/16 06:45:45;;;;;;;0.10;0.10;;;20.70;99.90;;;;;;5012950;28;20026;-82
2023/06/16 06:48:10;;;;;;;0.10;0.10;;;20.80;99.90;;;;;;5012950;28;20474;-83
2023/06/16 06:50:36;;;;;;;0.75;0.30;;;20.90;99.90;;;;;;5012900;28;20028;-83
2023/06/16 06:53:01;;;;;;;0.10;0.10;;;21.00;99.90;;;;;;5013558;28;20033;-83
2023/06/16 06:55:27;;;;;;;0.32;0.32;;;21.00;99.90;;;;;;5012558;28;20450;-83
2023/06/16 06:57:53;;;;;;;0.10;0.10;;;21.20;99.90;;;;;;5012704;28;20041;-83
2023/06/16 07:00:18;;;;;;;0.10;0.10;;;21.30;99.90;;;;;;5012779;28;20385;-83
2023/06/16 07:02:44;;;;;;;0.00;0.00;;;21.30;99.90;;;;;;5013022;28;20045;-82
2023/06/16 07:05:10;;;;;;;0.30;0.30;;;21.20;99.90;;;;;;5012742;28;20576;-83
2023/06/16 07:07:35;;;;;;;1.00;0.10;;;21.30;99.90;;;;;;5012677;28;20489;-83
2023/06/16 07:10:01;;;;;;;0.45;0.40;;;21.30;99.90;;;;;;5012368;28;20022;-83
2023/06/16 07:12:27;;;;;;;0.20;0.20;;;21.40;99.90;;;;;;5012136;28;20084;-83
2023/06/16 07:14:52;;;;;;;0.30;0.30;;;21.40;99.90;;;;;;5012931;28;20034;-83
2023/06/16 07:17:18;;;;;;;0.20;0.20;;;21.50;99.90;;;;;;5012622;28;20032;-83
2023/06/16 07:19:44;;;;;;;0.38;0.10;;;21.50;99.90;;;;;;5012593;28;20053;-83
2023/06/16 07:22:10;;;;;;;0.30;0.30;;;21.60;99.90;;;;;;5012401;28;20052;-83
2023/06/16 07:24:36;;;;;;;0.82;0.20;;;21.70;99.90;;;;;;5012172;28;20516;-83
2023/06/16 07:27:02;;;;;;;0.30;0.30;;;21.70;99.90;;;;;;5013385;28;20501;-83
2023/06/16 07:29:28;;;;;;;0.30;0.30;;;21.80;99.90;;;;;;5012514;28;20026;-83
2023/06/16 07:31:54;;;;;;;0.10;0.10;;;21.80;99.90;;;;;;5012153;28;20029;-83
2023/06/16 07:34:20;;;;;;;0.00;0.00;;;21.80;99.90;;;;;;4995126;28;20084;-83
2023/06/16 07:36:45;;;;;;;0.22;0.22;;;22.00;99.90;;;;;;5013201;28;20433;-83
2023/06/16 07:39:11;;;;;;;0.13;0.13;;;22.00;99.90;;;;;;5011931;28;20026;-83
2023/06/16 07:41:37;;;;;;;0.28;0.28;;;22.20;99.90;;;;;;5012105;28;20049;-82
2023/06/16 07:44:04;;;;;;;0.20;0.13;;;22.30;99.90;;;;;;5012147;28;20494;-83
2023/06/16 07:46:32;;;;;;;0.13;0.13;;;22.40;99.90;;;;;;5012366;28;20375;-83
2023/06/16 07:48:57;;;;;;;0.30;0.13;;;22.40;99.90;;;;;;5012625;28;20020;-83
2023/06/16 07:51:23;;;;;;;0.20;0.20;;;22.40;99.90;;;;;;5012015;28;20034;-83
2023/06/16 07:53:49;;;;;;;0.40;0.40;;;22.50;99.90;;;;;;5011762;28;20041;-83
2023/06/16 07:56:16;;;;;;;0.38;0.38;;;22.30;99.90;;;;;;5012520;28;20021;-83
2023/06/16 07:58:42;;;;;;;0.38;0.38;;;22.40;99.90;;;;;;5012151;28;20041;-83
2023/06/16 08:01:07;;;;;;;0.30;0.30;;;22.50;99.90;;;;;;5012232;28;20555;-83
2023/06/16 08:03:33;;;;;;;0.10;0.10;;;22.60;99.90;;;;;;5012144;28;20030;-83
2023/06/16 08:05:59;;;;;;;0.70;0.40;;;22.50;99.90;;;;;;5012621;28;20018;-83
2023/06/16 08:08:27;;;;;;;0.40;0.40;;;22.60;99.90;;;;;;5011931;28;20040;-83
2023/06/16 08:10:56;;;;;;;2.55;1.27;;;22.60;99.90;;;;;;5011928;28;20139;-83
2023/06/16 08:13:23;;;;;;;0.30;0.30;;;22.60;99.90;;;;;;5011862;28;20034;-83
2023/06/16 08:15:49;;;;;;;0.13;0.13;;;22.60;99.90;;;;;;5012002;28;20025;-83
2023/06/16 08:18:16;;;;;;;0.30;0.20;;;22.60;99.90;;;;;;5012549;28;20029;-82
2023/06/16 08:20:42;;;;;;;0.20;0.20;;;22.70;99.90;;;;;;5011986;28;20052;-83
2023/06/16 08:23:08;;;;;;;1.30;0.57;;;22.80;99.90;;;;;;5011463;28;20029;-83
2023/06/16 08:25:33;;;;;;;0.63;0.63;;;23.00;99.90;;;;;;5015145;28;20036;-83
2023/06/16 08:28:00;;;;;;;0.20;0.20;;;23.00;99.90;;;;;;5016503;28;20029;-82
2023/06/16 08:30:25;;;;;;;0.30;0.30;;;22.90;99.90;;;;;;5022417;28;20059;-83
2023/06/16 08:32:53;;;;;;;0.65;0.40;;;23.10;99.90;;;;;;5035016;28;20462;-83
2023/06/16 08:35:18;;;;;;;0.57;0.30;;;23.20;99.90;;;;;;5035568;28;20025;-83
2023/06/16 08:37:44;;;;;;;0.17;0.17;;;23.30;99.90;;;;;;5034818;28;20034;-83
2023/06/16 08:40:11;;;;;;;0.13;0.13;;;23.40;99.90;;;;;;5035691;28;20083;-83
2023/06/16 08:42:38;;;;;;;0.20;0.20;;;23.50;99.90;;;;;;5035008;28;20021;-82
2023/06/16 08:45:05;;;;;;;0.13;0.13;;;23.50;99.90;;;;;;5034896;28;20033;-82
2023/06/16 08:47:31;;;;;;;0.50;0.40;;;23.50;99.90;;;;;;5034894;28;20168;-83
2023/06/16 08:49:57;;;;;;;0.10;0.10;;;23.60;99.90;;;;;;5034921;28;20104;-83
2023/06/16 08:52:23;;;;;;;0.75;0.35;;;23.70;99.90;;;;;;5034450;28;20032;-83
2023/06/16 08:54:57;;;;;;;0.75;0.55;;;23.80;99.90;;;;;;5034729;28;20017;-82
2023/06/16 08:57:24;;;;;;;0.25;0.25;;;23.80;99.90;;;;;;5034669;28;20036;-82
2023/06/16 08:59:54;;;;;;;1.55;0.43;;;23.70;99.90;;;;;;5034720;28;20371;-83
2023/06/16 09:02:21;;;;;;;0.20;0.20;;;23.70;99.90;;;;;;5035012;28;20359;-82
2023/06/16 09:04:47;;;;;;;0.65;0.65;;;23.70;99.90;;;;;;5034205;28;20104;-83
2023/06/16 09:07:19;;;;;;;0.20;0.20;;;23.70;99.90;;;;;;5034551;28;20405;-82
2023/06/16 09:09:49;;;;;;;0.95;0.55;;;23.90;99.90;;;;;;5034661;28;20064;-82
2023/06/16 09:12:15;;;;;;;0.20;0.20;;;24.10;99.90;;;;;;5034373;28;20501;-83
2023/06/16 09:14:42;;;;;;;0.25;0.25;;;24.20;99.90;;;;;;5034195;28;20072;-82
2023/06/16 09:17:09;;;;;;;0.28;0.28;;;24.30;99.90;;;;;;5034817;28;20032;-83
2023/06/16 09:19:50;;;;;;;0.47;0.47;;;24.30;99.90;;;;;;5033984;28;20025;-82
2023/06/16 09:22:20;;;;;;;0.40;0.40;;;24.40;99.90;;;;;;5033813;28;20064;-82
2023/06/16 09:24:56;;;;;;;0.50;0.50;;;24.50;99.90;;;;;;5034572;28;20021;-82
2023/06/16 09:27:26;;;;;;;0.32;0.32;;;24.60;99.90;;;;;;5033991;28;20108;-82
2023/06/16 09:29:58;;;;;;;0.57;0.20;;;24.50;99.90;;;;;;5033859;28;20056;-82
2023/06/16 09:32:24;;;;;;;0.10;0.10;;;24.60;99.90;;;;;;5033916;28;20427;-82
2023/06/16 09:34:50;;;;;;;0.43;0.30;;;24.60;99.90;;;;;;5033605;28;20100;-82
2023/06/16 09:37:19;;;;;;;0.63;0.63;;;24.70;99.90;;;;;;5034257;28;20060;-82
2023/06/16 09:39:45;;;;;;;0.38;0.38;;;24.80;99.90;;;;;;5034221;28;20143;-82
2023/06/16 09:42:16;;;;;;;0.50;0.50;;;24.80;99.90;;;;;;5033481;28;20073;-83
2023/06/16 09:44:42;;;;;;;0.50;0.50;;;24.90;99.90;;;;;;5033585;28;20028;-82
2023/06/16 09:47:12;;;;;;;0.20;0.20;;;24.80;99.90;;;;;;5034256;28;20104;-82
2023/06/16 09:49:38;;;;;;;0.20;0.20;;;24.90;99.90;;;;;;5033581;28;20086;-82
2023/06/16 09:52:04;;;;;;;0.55;0.32;;;24.90;99.90;;;;;;5033528;28;20127;-83
2023/06/16 09:54:33;;;;;;;0.57;0.57;;;24.90;99.90;;;;;;5034174;28;20299;-82
2023/06/16 09:57:01;;;;;;;0.65;0.63;;;25.10;99.90;;;;;;5033737;28;20493;-83
2023/06/16 09:59:27;;;;;;;0.70;0.38;;;25.30;99.90;;;;;;5033599;28;20026;-83
2023/06/16 10:01:54;;;;;;;0.30;0.30;;;25.20;99.90;;;;;;5034569;28;20037;-83
2023/06/16 10:04:22;;;;;;;0.38;0.30;;;25.20;99.90;;;;;;5033268;28;20029;-83
2023/06/16 10:06:57;;;;;;;4.03;0.40;;;25.40;99.90;;;;;;5033374;28;20033;-82
2023/06/16 10:09:28;;;;;;;0.68;0.50;;;25.40;99.90;;;;;;5033857;28;20053;-83
2023/06/16 10:11:56;;;;;;;0.57;0.55;;;25.60;99.90;;;;;;5033100;28;20030;-83
2023/06/16 10:14:25;;;;;;;0.43;0.43;;;25.60;99.90;;;;;;5015397;28;20032;-83
2023/06/16 10:16:54;;;;;;;0.85;0.30;;;25.60;99.90;;;;;;5033628;28;20022;-83
2023/06/16 10:19:22;;;;;;;0.65;0.60;;;25.50;99.90;;;;;;5033190;28;20021;-82
2023/06/16 10:21:50;;;;;;;0.22;0.22;;;25.70;99.90;;;;;;5033168;28;20086;-83
2023/06/16 10:24:16;;;;;;;1.63;0.50;;;25.90;99.90;;;;;;5033559;28;20754;-83
2023/06/16 10:26:43;;;;;;;0.20;0.20;;;25.70;99.90;;;;;;5032970;28;20039;-83
2023/06/16 10:29:12;;;;;;;0.38;0.30;;;25.40;99.90;;;;;;5033780;28;20029;-83
2023/06/16 10:31:39;;;;;;;0.85;0.50;;;25.70;99.90;;;;;;5032854;28;20029;-83
2023/06/16 10:34:05;;;;;;;0.68;0.22;;;25.70;99.90;;;;;;5033081;28;20025;-83
2023/06/16 10:36:33;;;;;;;0.68;0.68;;;25.70;99.90;;;;;;5032824;28;20209;-83
2023/06/16 10:39:18;;;;;;;0.43;0.43;;;25.90;99.90;;;;;;5032849;28;20049;-83
2023/06/16 10:41:58;;;;;;;0.52;0.43;;;25.80;99.90;;;;;;5032384;28;20157;-83
2023/06/16 10:44:30;;;;;;;0.20;0.20;;;26.10;99.90;;;;;;5033218;28;20026;-82
2023/06/16 10:47:05;;;;;;;0.60;0.47;;;26.00;99.90;;;;;;5031749;28;20071;-83
2023/06/16 10:49:31;;;;;;;0.13;0.13;;;26.10;99.90;;;;;;5033028;28;20037;-83
2023/06/16 10:51:59;;;;;;;1.45;0.88;;;26.00;99.90;;;;;;5032815;28;20067;-83
2023/06/16 10:54:43;;;;;;;0.35;0.35;;;26.10;99.90;;;;;;5032707;28;20040;-83
2023/06/16 10:57:10;;;;;;;0.40;0.40;;;26.30;99.90;;;;;;5032618;28;20022;-83
2023/06/16 11:00:11;;;;;;;0.43;0.43;;;26.20;99.90;;;;;;5032483;28;20112;-83
2023/06/16 11:02:47;;;;;;;1.27;0.38;;;26.40;99.90;;;;;;5032060;28;20457;-81
2023/06/16 11:05:14;;;;;;;0.68;0.50;;;26.50;99.90;;;;;;5032373;28;20159;-83
2023/06/16 11:08:05;;;;;;;1.02;0.60;;;26.50;99.90;;;;;;5032536;28;20493;-83
2023/06/16 11:10:46;;;;;;;1.15;0.38;;;26.50;99.90;;;;;;5022889;28;20129;-83
2023/06/16 11:13:15;;;;;;;0.22;0.22;;;26.60;99.90;;;;;;5032067;28;20116;-83
2023/06/16 11:15:45;;;;;;;0.75;0.40;;;26.60;99.90;;;;;;5032316;28;20018;-83
2023/06/16 11:18:12;;;;;;;0.73;0.60;;;26.60;99.90;;;;;;5032106;28;20029;-82
2023/06/16 11:20:38;;;;;;;0.43;0.30;;;26.70;99.90;;;;;;5032176;28;20033;-83
2023/06/16 11:23:04;;;;;;;0.40;0.40;;;27.20;99.90;;;;;;5032068;28;20030;-83
2023/06/16 11:25:30;;;;;;;0.45;0.45;;;26.90;99.90;;;;;;5032448;28;20032;-83
2023/06/16 11:27:56;;;;;;;0.17;0.17;;;27.00;99.90;;;;;;5031971;28;20100;-82
2023/06/16 11:30:22;;;;;;;4.22;0.60;;;27.20;99.90;;;;;;5031628;28;20030;-83
2023/06/16 11:32:49;;;;;;;1.75;0.52;;;27.20;99.90;;;;;;5014137;28;20037;-82
2023/06/16 11:35:15;;;;;;;1.05;0.40;;;27.00;99.90;;;;;;5032020;28;20032;-83
2023/06/16 11:37:41;;;;;;;1.23;0.85;;;27.30;99.90;;;;;;5032218;28;20112;-83
2023/06/16 11:40:08;;;;;;;1.27;0.90;;;27.20;99.90;;;;;;5032258;28;20022;-83
2023/06/16 11:42:34;;;;;;;0.32;0.30;;;27.30;99.90;;;;;;5032499;28;20026;-83
2023/06/16 11:45:00;;;;;;;0.85;0.75;;;27.40;99.90;;;;;;5031671;28;20021;-83
2023/06/16 11:47:25;;;;;;;0.63;0.50;;;27.60;99.90;;;;;;5031840;28;20117;-83
2023/06/16 11:49:51;;;;;;;0.35;0.35;;;28.00;99.90;;;;;;5014168;28;20409;-83
2023/06/16 11:52:18;;;;;;;0.30;0.30;;;28.10;99.90;;;;;;5031658;28;20045;-83
2023/06/16 11:54:44;;;;;;;0.65;0.40;;;28.00;99.90;;;;;;5032753;28;20021;-83
2023/06/16 11:57:10;;;;;;;0.40;0.40;;;28.10;99.90;;;;;;5031939;28;20489;-82
2023/06/16 11:59:37;;;;;;;0.55;0.55;;;28.10;99.90;;;;;;5033739;28;20397;-83
2023/06/16 12:02:03;;;;;;;0.28;0.28;;;28.00;99.90;;;;;;5035773;28;20070;-83
2023/06/16 12:04:31;;;;;;;0.38;0.38;;;27.90;99.90;;;;;;5035597;28;20125;-83
2023/06/16 12:06:58;;;;;;;0.52;0.52;;;28.30;99.90;;;;;;5036033;28;20026;-83
2023/06/16 12:09:35;;;;;;;0.55;0.55;;;28.10;99.90;;;;;;5035612;28;20045;-82
2023/06/16 12:12:03;;;;;;;0.30;0.30;;;28.00;99.90;;;;;;5035463;28;20033;-82
2023/06/16 12:14:29;;;;;;;0.20;0.20;;;28.10;99.90;;;;;;5035582;28;20033;-83
2023/06/16 12:16:56;;;;;;;0.43;0.43;;;28.10;99.90;;;;;;5035195;28;20132;-83
2023/06/16 12:19:22;;;;;;;0.00;0.00;;;28.00;99.90;;;;;;5035444;28;20033;-83
2023/06/16 12:21:51;;;;;;;1.30;0.60;;;28.20;99.90;;;;;;5035438;28;20109;-82
2023/06/16 12:24:21;;;;;;;0.20;0.13;;;28.50;99.90;;;;;;5035791;28;20033;-83
2023/06/16 12:26:47;;;;;;;0.52;0.20;;;28.90;99.90;;;;;;5035970;28;20492;-83
2023/06/16 12:29:15;;;;;;;0.32;0.30;;;29.20;99.90;;;;;;5035084;28;20037;-83
2023/06/16 12:31:57;;;;;;;0.20;0.20;;;29.00;99.90;;;;;;5035081;28;20021;-83
2023/06/16 12:34:33;;;;;;;0.60;0.45;;;28.90;99.90;;;;;;5035681;28;20029;-83
2023/06/16 12:37:06;;;;;;;1.00;0.32;;;28.90;99.90;;;;;;5035341;28;20033;-83
2023/06/16 12:39:32;;;;;;;0.40;0.40;;;28.80;99.90;;;;;;5035267;28;20041;-83
2023/06/16 12:41:59;;;;;;;0.80;0.63;;;29.00;99.90;;;;;;5034749;28;20026;-83
2023/06/16 12:44:41;;;;;;;0.20;0.20;;;29.30;99.90;;;;;;5034624;28;20027;-83
2023/06/16 12:47:07;;;;;;;0.50;0.50;;;29.50;99.90;;;;;;5035045;28;20021;-83
2023/06/16 12:49:32;;;;;;;0.65;0.50;;;29.80;99.90;;;;;;5034920;28;20126;-83